createdAt,value
2023-04-29T00:00:43.904Z,3.9
2023-04-29T00:01:53.087Z,4.6
2023-04-29T00:03:02.255Z,5.1
2023-04-29T00:04:11.460Z,7.4
2023-04-29T00:05:20.596Z,4.5
2023-04-29T00:06:29.771Z,3.8
2023-04-29T00:07:38.945Z,5
2023-04-29T00:08:47.123Z,4.4
2023-04-29T00:09:56.312Z,3.2
2023-04-29T00:11:05.508Z,4.19
2023-04-29T00:12:14.659Z,5.4
2023-04-29T00:13:23.803Z,5.1
2023-04-29T00:14:32.986Z,5.4
2023-04-29T00:15:42.162Z,4.4
2023-04-29T00:16:50.349Z,4.6
2023-04-29T00:17:58.538Z,4.1
2023-04-29T00:19:07.713Z,3.4
2023-04-29T00:20:16.874Z,5
2023-04-29T00:21:26.056Z,6.3
2023-04-29T00:22:35.220Z,3.6
2023-04-29T00:23:43.448Z,3.4
2023-04-29T00:24:51.607Z,3.8
2023-04-29T00:26:00.788Z,4.1
2023-04-29T00:27:09.956Z,4.19
2023-04-29T00:28:19.126Z,5.6
2023-04-29T00:29:28.298Z,5.1
2023-04-29T00:30:37.473Z,4.9
2023-04-29T00:31:46.643Z,4.9
2023-04-29T00:32:55.834Z,6.3
2023-04-29T00:34:05.003Z,4.4
2023-04-29T00:35:14.158Z,5.5
2023-04-29T00:36:23.335Z,5
2023-04-29T00:37:32.510Z,6.1
2023-04-29T00:38:41.676Z,3.5
2023-04-29T00:39:49.870Z,4.9
2023-04-29T00:40:59.051Z,3.5
2023-04-29T00:42:08.224Z,5.2
2023-04-29T00:43:17.385Z,3.6
2023-04-29T00:44:26.549Z,3.7
2023-04-29T00:45:35.733Z,5.3
2023-04-29T00:46:44.901Z,5
2023-04-29T00:47:53.104Z,4.69
2023-04-29T00:49:01.293Z,5.3
2023-04-29T00:50:10.460Z,5.5
2023-04-29T00:51:19.626Z,5.7
2023-04-29T00:52:28.809Z,7.1
2023-04-29T00:53:37.976Z,6.1
2023-04-29T00:54:47.145Z,4
2023-04-29T00:55:55.346Z,3.8
2023-04-29T00:57:03.537Z,5.8
2023-04-29T00:58:12.680Z,5
2023-04-29T00:59:21.857Z,4.6
2023-04-29T01:00:31.054Z,4.4
2023-04-29T01:01:40.206Z,3.9
2023-04-29T01:02:49.378Z,3.8
2023-04-29T01:03:58.568Z,4.5
2023-04-29T01:05:07.740Z,7.9
2023-04-29T01:06:16.911Z,4.1
2023-04-29T01:07:26.092Z,4.6
2023-04-29T01:08:35.250Z,5.4
2023-04-29T01:09:44.425Z,5.3
2023-04-29T01:10:53.600Z,4.9
2023-04-29T01:12:01.789Z,5.7
2023-04-29T01:13:10.964Z,4.9
2023-04-29T01:14:20.128Z,4.69
2023-04-29T01:15:29.313Z,3.6
2023-04-29T01:16:38.475Z,3.4
2023-04-29T01:17:47.648Z,4.4
2023-04-29T01:18:56.821Z,4.5
2023-04-29T01:20:05.010Z,2.7
2023-04-29T01:21:13.214Z,4.69
2023-04-29T01:22:21.408Z,4.69
2023-04-29T01:23:29.590Z,3.2
2023-04-29T01:24:38.770Z,5.1
2023-04-29T01:25:47.941Z,3.4
2023-04-29T01:26:57.107Z,3.9
2023-04-29T01:28:06.280Z,3.7
2023-04-29T01:29:15.451Z,5.1
2023-04-29T01:30:24.638Z,4
2023-04-29T01:31:33.797Z,2.8
2023-04-29T01:32:42.977Z,4.19
2023-04-29T01:33:52.143Z,6.3
2023-04-29T01:35:01.304Z,3.5
2023-04-29T01:36:10.482Z,4.3
2023-04-29T01:37:19.659Z,2.8
2023-04-29T01:38:27.853Z,4.1
2023-04-29T01:39:37.056Z,3.9
2023-04-29T01:40:46.245Z,4.5
2023-04-29T01:41:55.360Z,2.7
2023-04-29T01:43:04.550Z,3.4
2023-04-29T01:44:13.714Z,3.8
2023-04-29T01:45:22.885Z,4.19
2023-04-29T01:46:31.082Z,4.5
2023-04-29T01:47:39.273Z,3.9
2023-04-29T01:48:48.441Z,2.8
2023-04-29T01:49:57.606Z,4.4
2023-04-29T01:51:05.802Z,4
2023-04-29T01:52:14.017Z,5.7
2023-04-29T01:53:23.162Z,3.2
2023-04-29T01:54:32.324Z,4.1
2023-04-29T01:55:41.503Z,3.8
2023-04-29T01:56:50.684Z,2.9
2023-04-29T01:57:59.851Z,3.8
2023-04-29T01:59:09.025Z,2.7
2023-04-29T02:00:18.237Z,2.9
2023-04-29T02:02:36.542Z,3.4
2023-04-29T02:03:45.713Z,4.1
2023-04-29T02:06:04.059Z,4.9
2023-04-29T02:07:12.257Z,3
2023-04-29T02:08:20.444Z,4.4
2023-04-29T02:09:29.618Z,3.6
2023-04-29T02:10:38.790Z,3.9
2023-04-29T02:11:47.959Z,2.4
2023-04-29T02:12:57.134Z,2.7
2023-04-29T02:14:06.311Z,3.3
2023-04-29T02:15:15.478Z,3.3
2023-04-29T02:16:24.687Z,3.5
2023-04-29T02:17:33.838Z,2.9
2023-04-29T02:18:43.000Z,4.1
2023-04-29T02:19:51.186Z,3.1
2023-04-29T02:20:59.385Z,3.6
2023-04-29T02:22:08.560Z,3.6
2023-04-29T02:23:17.732Z,5.2
2023-04-29T02:24:26.911Z,4.9
2023-04-29T02:25:36.080Z,3.3
2023-04-29T02:26:44.274Z,2.6
2023-04-29T02:27:53.440Z,3.5
2023-04-29T02:29:02.620Z,2.7
2023-04-29T02:30:11.789Z,3.1
2023-04-29T02:31:20.958Z,3.2
2023-04-29T02:32:30.141Z,4
2023-04-29T02:33:39.304Z,5.5
2023-04-29T02:34:48.471Z,3.5
2023-04-29T02:35:57.658Z,2.3
2023-04-29T02:37:06.819Z,4.5
2023-04-29T02:38:15.993Z,3.8
2023-04-29T02:39:25.155Z,3.9
2023-04-29T02:40:34.338Z,5.2
2023-04-29T02:41:42.524Z,5.2
2023-04-29T02:42:51.692Z,5.1
2023-04-29T02:43:59.889Z,3.2
2023-04-29T02:45:08.076Z,4.19
2023-04-29T02:46:17.253Z,4.8
2023-04-29T02:47:26.433Z,2.8
2023-04-29T02:48:35.597Z,2.4
2023-04-29T02:49:44.778Z,4
2023-04-29T02:50:53.946Z,2.8
2023-04-29T02:52:02.137Z,3.5
2023-04-29T02:53:10.316Z,4.5
2023-04-29T02:54:19.510Z,3.7
2023-04-29T02:55:28.673Z,3.4
2023-04-29T02:56:37.854Z,5
2023-04-29T02:57:47.037Z,4.1
2023-04-29T02:58:56.196Z,3.2
2023-04-29T03:00:05.373Z,3.5
2023-04-29T03:01:14.551Z,3.5
2023-04-29T03:02:23.701Z,3.4
2023-04-29T03:03:32.882Z,2.3
2023-04-29T03:04:42.049Z,3.9
2023-04-29T03:05:51.228Z,4.6
2023-04-29T03:07:00.404Z,2.6
2023-04-29T03:08:08.587Z,6
2023-04-29T03:09:17.765Z,6.8
2023-04-29T03:10:26.928Z,4
2023-04-29T03:11:36.105Z,3
2023-04-29T03:12:45.315Z,3.4
2023-04-29T03:13:54.453Z,4.5
2023-04-29T03:15:03.626Z,3.3
2023-04-29T03:16:11.811Z,4.4
2023-04-29T03:17:20.010Z,3.5
2023-04-29T03:18:29.181Z,4.3
2023-04-29T03:20:47.518Z,5.3
2023-04-29T03:21:55.711Z,5
2023-04-29T03:23:03.902Z,2.5
2023-04-29T03:24:13.061Z,6
2023-04-29T03:25:22.245Z,5.1
2023-04-29T03:26:31.423Z,3.2
2023-04-29T03:27:40.581Z,4.69
2023-04-29T03:28:49.767Z,2.9
2023-04-29T03:29:58.931Z,2.9
2023-04-29T03:31:08.129Z,4.1
2023-04-29T03:32:17.280Z,3.5
2023-04-29T03:33:26.438Z,3.2
2023-04-29T03:35:44.795Z,3.6
2023-04-29T03:36:53.964Z,3.5
2023-04-29T03:38:02.155Z,3.4
2023-04-29T03:39:11.330Z,3.6
2023-04-29T03:40:20.485Z,5.2
2023-04-29T03:41:29.701Z,4.3
2023-04-29T03:42:38.835Z,4.3
2023-04-29T03:43:48.014Z,4.19
2023-04-29T03:44:57.197Z,2.8
2023-04-29T03:46:06.367Z,5
2023-04-29T03:47:15.532Z,3.8
2023-04-29T03:48:24.698Z,4.4
2023-04-29T03:49:32.907Z,4.9
2023-04-29T03:50:42.071Z,4.3
2023-04-29T03:51:50.259Z,3.5
2023-04-29T03:52:59.429Z,3.7
2023-04-29T03:54:07.629Z,2.9
2023-04-29T03:55:15.815Z,3.2
2023-04-29T03:56:24.984Z,2.6
2023-04-29T03:57:34.161Z,2.2
2023-04-29T03:58:43.339Z,3.6
2023-04-29T03:59:52.502Z,3
2023-04-29T04:01:01.678Z,2.6
2023-04-29T04:02:10.852Z,3.3
2023-04-29T04:03:20.033Z,4.1
2023-04-29T04:04:29.194Z,3.9
2023-04-29T04:05:38.371Z,3.7
2023-04-29T04:06:47.542Z,3.6
2023-04-29T04:07:56.712Z,4
2023-04-29T04:09:05.880Z,3.7
2023-04-29T04:10:14.116Z,4.3
2023-04-29T04:11:23.266Z,4
2023-04-29T04:12:32.419Z,5.1
2023-04-29T04:13:41.599Z,4.3
2023-04-29T04:14:50.744Z,3.9
2023-04-29T04:15:59.937Z,3.1
2023-04-29T04:17:09.123Z,2.8
2023-04-29T04:18:18.281Z,4.8
2023-04-29T04:20:36.631Z,3.6
2023-04-29T04:21:45.791Z,2.8
2023-04-29T04:22:54.982Z,3.4
2023-04-29T04:24:04.148Z,3.6
2023-04-29T04:25:12.376Z,3
2023-04-29T04:26:21.507Z,4.3
2023-04-29T04:27:30.667Z,2.5
2023-04-29T04:28:39.856Z,3.2
2023-04-29T04:29:49.026Z,2.9
2023-04-29T04:30:57.230Z,5.8
2023-04-29T04:32:05.406Z,3.1
2023-04-29T04:33:13.593Z,2.2
2023-04-29T04:34:21.790Z,1.9
2023-04-29T04:35:30.961Z,3
2023-04-29T04:36:40.125Z,4
2023-04-29T04:37:49.311Z,2
2023-04-29T04:38:58.481Z,3.2
2023-04-29T04:40:07.643Z,3.1
2023-04-29T04:41:16.822Z,2.9
2023-04-29T04:42:26.006Z,2.8
2023-04-29T04:43:35.161Z,2.9
2023-04-29T04:44:44.346Z,6.5
2023-04-29T04:45:53.509Z,3.6
2023-04-29T04:47:02.682Z,3.5
2023-04-29T04:48:11.863Z,3.5
2023-04-29T04:49:20.039Z,3.5
2023-04-29T04:50:29.232Z,3.5
2023-04-29T04:51:38.386Z,3.3
2023-04-29T04:52:47.549Z,3.5
2023-04-29T04:53:56.734Z,2.3
2023-04-29T04:55:05.910Z,3.3
2023-04-29T04:56:15.132Z,3.2
2023-04-29T04:57:23.318Z,3.4
2023-04-29T04:58:31.516Z,3.7
2023-04-29T04:59:39.708Z,2.4
2023-04-29T05:00:47.901Z,3.2
2023-04-29T05:01:57.067Z,4.1
2023-04-29T05:04:15.411Z,2.7
2023-04-29T05:05:24.584Z,3
2023-04-29T05:06:33.751Z,3.7
2023-04-29T05:07:42.933Z,2.09
2023-04-29T05:08:52.097Z,3.8
2023-04-29T05:10:01.266Z,3.5
2023-04-29T05:11:10.453Z,2.7
2023-04-29T05:12:19.625Z,2.2
2023-04-29T05:13:28.791Z,3.9
2023-04-29T05:14:37.974Z,2.8
2023-04-29T05:15:46.161Z,4.1
2023-04-29T05:16:55.326Z,5.4
2023-04-29T05:18:04.519Z,4.69
2023-04-29T05:19:13.670Z,3.3
2023-04-29T05:20:22.842Z,5
2023-04-29T05:21:32.017Z,3.3
2023-04-29T05:22:41.181Z,3.4
2023-04-29T05:23:50.356Z,2.9
2023-04-29T05:24:58.562Z,2.7
2023-04-29T05:26:06.742Z,3.2
2023-04-29T05:28:25.096Z,2.9
2023-04-29T05:29:34.268Z,3.2
2023-04-29T05:30:43.434Z,2.09
2023-04-29T05:31:52.640Z,2.09
2023-04-29T05:33:00.797Z,1.9
2023-04-29T05:34:08.998Z,2.2
2023-04-29T05:35:18.163Z,3.1
2023-04-29T05:36:27.327Z,3.2
2023-04-29T05:37:36.494Z,3.7
2023-04-29T05:38:45.683Z,2.3
2023-04-29T05:39:54.850Z,3.1
2023-04-29T05:41:04.026Z,4.4
2023-04-29T05:42:13.194Z,4.6
2023-04-29T05:43:22.381Z,2.8
2023-04-29T05:44:31.537Z,3
2023-04-29T05:46:49.875Z,4.19
2023-04-29T05:47:59.066Z,3.8
2023-04-29T05:49:07.255Z,3.9
2023-04-29T05:50:16.424Z,4.8
2023-04-29T05:51:25.639Z,3.1
2023-04-29T05:52:34.765Z,3.5
2023-04-29T05:53:43.938Z,2.7
2023-04-29T05:54:53.113Z,2.9
2023-04-29T05:56:02.286Z,5
2023-04-29T05:57:11.468Z,4.4
2023-04-29T05:58:19.646Z,4.1
2023-04-29T05:59:27.833Z,2.3
2023-04-29T06:00:37.008Z,3.8
2023-04-29T06:01:45.202Z,3.5
2023-04-29T06:02:53.394Z,5.8
2023-04-29T06:04:02.561Z,2.4
2023-04-29T06:06:20.916Z,4
2023-04-29T06:07:30.098Z,3.1
2023-04-29T06:08:39.261Z,3.4
2023-04-29T06:09:48.568Z,3.6
2023-04-29T06:10:57.596Z,3.1
2023-04-29T06:12:06.783Z,2.3
2023-04-29T06:13:15.948Z,2.3
2023-04-29T06:14:25.137Z,3.8
2023-04-29T06:15:34.293Z,2.4
2023-04-29T06:16:43.484Z,2.6
2023-04-29T06:17:51.664Z,4.4
2023-04-29T06:19:00.827Z,2.7
2023-04-29T06:20:10.014Z,3
2023-04-29T06:21:19.171Z,2.4
2023-04-29T06:22:28.340Z,4.19
2023-04-29T06:23:37.517Z,2.3
2023-04-29T06:24:46.697Z,2.8
2023-04-29T06:25:55.872Z,2.3
2023-04-29T06:27:05.034Z,4
2023-04-29T06:28:14.216Z,4.5
2023-04-29T06:29:23.377Z,3.4
2023-04-29T06:30:32.584Z,4.5
2023-04-29T06:32:50.903Z,2.4
2023-04-29T06:33:59.099Z,2.9
2023-04-29T06:35:08.256Z,2.6
2023-04-29T06:36:17.437Z,4.5
2023-04-29T06:37:26.600Z,3
2023-04-29T06:38:35.786Z,4.9
2023-04-29T06:40:54.128Z,2.5
2023-04-29T06:42:03.336Z,3.2
2023-04-29T06:43:12.464Z,3
2023-04-29T06:44:21.639Z,3.3
2023-04-29T06:45:30.816Z,3
2023-04-29T06:46:40.014Z,3.4
2023-04-29T06:47:49.174Z,4.5
2023-04-29T06:48:57.352Z,2.9
2023-04-29T06:50:06.557Z,2.4
2023-04-29T06:51:15.691Z,2.7
2023-04-29T06:52:24.863Z,3.5
2023-04-29T06:53:33.057Z,4.1
2023-04-29T06:54:41.248Z,3.9
2023-04-29T06:55:49.431Z,4.8
2023-04-29T06:56:57.632Z,2.4
2023-04-29T06:58:06.806Z,2.3
2023-04-29T06:59:15.983Z,2.2
2023-04-29T07:00:25.145Z,4.69
2023-04-29T07:01:34.347Z,3.1
2023-04-29T07:02:43.480Z,4
2023-04-29T07:03:52.665Z,3.4
2023-04-29T07:05:01.840Z,2.8
2023-04-29T07:06:11.068Z,3.5
2023-04-29T07:07:20.183Z,5
2023-04-29T07:08:29.352Z,3.8
2023-04-29T07:09:38.615Z,2.5
2023-04-29T07:10:47.692Z,3.4
2023-04-29T07:11:55.894Z,3.1
2023-04-29T07:13:05.051Z,3.6
2023-04-29T07:14:14.285Z,3.8
2023-04-29T07:15:23.399Z,4.1
2023-04-29T07:16:32.581Z,3.6
2023-04-29T07:17:41.749Z,3.2
2023-04-29T07:18:50.920Z,3.5
2023-04-29T07:19:59.113Z,2.2
2023-04-29T07:21:07.301Z,3.8
2023-04-29T07:22:16.495Z,3.6
2023-04-29T07:23:24.685Z,4.3
2023-04-29T07:24:32.868Z,3.7
2023-04-29T07:25:42.051Z,3.8
2023-04-29T07:26:51.201Z,4.4
2023-04-29T07:28:00.409Z,3.5
2023-04-29T07:29:09.557Z,2.9
2023-04-29T07:30:18.715Z,3.4
2023-04-29T07:31:27.894Z,3.4
2023-04-29T07:32:37.065Z,3.7
2023-04-29T07:33:46.251Z,3.7
2023-04-29T07:34:55.532Z,3.7
2023-04-29T07:36:04.593Z,3.5
2023-04-29T07:37:13.760Z,2
2023-04-29T07:38:22.930Z,3.6
2023-04-29T07:39:31.110Z,2.6
2023-04-29T07:40:40.286Z,3
2023-04-29T07:41:49.452Z,4
2023-04-29T07:42:58.632Z,4.5
2023-04-29T07:44:07.807Z,4.19
2023-04-29T07:45:16.978Z,3.9
2023-04-29T07:46:26.189Z,3
2023-04-29T07:47:35.321Z,4.4
2023-04-29T07:48:44.490Z,4.1
2023-04-29T07:49:53.665Z,5.2
2023-04-29T07:51:02.828Z,4.9
2023-04-29T07:53:21.186Z,3.1
2023-04-29T07:54:30.346Z,3.8
2023-04-29T07:55:38.575Z,3.9
2023-04-29T07:56:47.715Z,4.19
2023-04-29T07:57:55.916Z,4.1
2023-04-29T07:59:04.095Z,6.6
2023-04-29T08:00:13.270Z,3.5
2023-04-29T08:01:22.455Z,2.7
2023-04-29T08:02:31.623Z,3.6
2023-04-29T08:03:40.787Z,3
2023-04-29T08:04:50.124Z,4.19
2023-04-29T08:05:59.122Z,2.7
2023-04-29T08:07:08.297Z,4.8
2023-04-29T08:08:17.472Z,2.9
2023-04-29T08:09:25.664Z,5.8
2023-04-29T08:10:33.850Z,2.4
2023-04-29T08:11:43.033Z,4.6
2023-04-29T08:12:52.195Z,3.4
2023-04-29T08:14:01.372Z,2.8
2023-04-29T08:15:10.558Z,3.5
2023-04-29T08:16:19.713Z,4
2023-04-29T08:17:28.885Z,3.8
2023-04-29T08:18:38.097Z,3.6
2023-04-29T08:20:56.437Z,3.3
2023-04-29T08:22:05.569Z,5.2
2023-04-29T08:23:14.756Z,3.4
2023-04-29T08:24:23.923Z,5.3
2023-04-29T08:25:32.103Z,3.2
2023-04-29T08:26:41.278Z,3.8
2023-04-29T08:27:50.459Z,3.3
2023-04-29T08:28:59.634Z,4.1
2023-04-29T08:30:08.822Z,3.5
2023-04-29T08:31:17.966Z,5.7
2023-04-29T08:32:27.148Z,3
2023-04-29T08:33:36.318Z,1.8
2023-04-29T08:35:54.671Z,2.4
2023-04-29T08:37:03.831Z,3.5
2023-04-29T08:38:13.010Z,3.7
2023-04-29T08:39:22.184Z,3
2023-04-29T08:41:39.539Z,2.09
2023-04-29T08:42:47.744Z,4.19
2023-04-29T08:43:55.935Z,3.2
2023-04-29T08:45:05.108Z,2.6
2023-04-29T08:46:14.283Z,2.2
2023-04-29T08:47:23.439Z,4.6
2023-04-29T08:48:32.618Z,3.7
2023-04-29T08:49:41.784Z,1.9
2023-04-29T08:50:50.952Z,2.5
2023-04-29T08:52:00.124Z,3.2
2023-04-29T08:53:09.309Z,2.09
2023-04-29T08:54:18.494Z,3.6
2023-04-29T08:55:26.678Z,2.4
2023-04-29T08:56:34.857Z,2.5
2023-04-29T08:57:44.027Z,1.8
2023-04-29T08:58:53.205Z,3.4
2023-04-29T09:00:02.387Z,3
2023-04-29T09:01:11.549Z,3
2023-04-29T09:02:20.717Z,2.2
2023-04-29T09:03:29.895Z,2.6
2023-04-29T09:04:39.179Z,2.9
2023-04-29T09:05:48.253Z,2
2023-04-29T09:06:57.418Z,3.3
2023-04-29T09:08:06.587Z,1.8
2023-04-29T09:09:15.772Z,3.8
2023-04-29T09:10:24.928Z,2.9
2023-04-29T09:11:33.119Z,2.7
2023-04-29T09:12:42.292Z,2.09
2023-04-29T09:13:51.472Z,2.6
2023-04-29T09:15:00.654Z,3.5
2023-04-29T09:16:09.806Z,3.1
2023-04-29T09:17:18.997Z,3.2
2023-04-29T09:18:28.162Z,2.3
2023-04-29T09:19:37.316Z,1.8
2023-04-29T09:20:46.495Z,2.2
2023-04-29T09:21:55.668Z,3.2
2023-04-29T09:23:04.874Z,3.3
2023-04-29T09:24:14.027Z,3.7
2023-04-29T09:25:22.305Z,2.4
2023-04-29T09:26:31.413Z,4
2023-04-29T09:27:39.559Z,2.5
2023-04-29T09:28:47.791Z,3.6
2023-04-29T09:29:56.952Z,2.9
2023-04-29T09:31:06.100Z,3.2
2023-04-29T09:32:15.299Z,4.8
2023-04-29T09:33:24.453Z,4.19
2023-04-29T09:34:33.662Z,2.6
2023-04-29T09:35:42.816Z,2.6
2023-04-29T09:36:52.042Z,3.7
2023-04-29T09:38:01.132Z,1.2
2023-04-29T09:39:10.297Z,2
2023-04-29T09:40:19.474Z,3.5
2023-04-29T09:41:28.652Z,3
2023-04-29T09:42:37.832Z,3.1
2023-04-29T09:43:46.024Z,2.4
2023-04-29T09:44:55.183Z,3.5
2023-04-29T09:46:04.362Z,2.2
2023-04-29T09:47:13.526Z,2.9
2023-04-29T09:48:22.705Z,3
2023-04-29T09:49:31.888Z,1.8
2023-04-29T09:50:41.040Z,5.2
2023-04-29T09:51:50.217Z,2.6
2023-04-29T09:52:59.391Z,3.7
2023-04-29T09:54:08.569Z,3
2023-04-29T09:55:17.756Z,3.4
2023-04-29T09:56:26.941Z,3.4
2023-04-29T09:57:36.094Z,1.9
2023-04-29T09:58:44.266Z,3.3
2023-04-29T09:59:53.438Z,2.6
2023-04-29T10:01:02.609Z,2.6
2023-04-29T10:02:11.789Z,1.9
2023-04-29T10:03:20.950Z,2
2023-04-29T10:04:30.134Z,3.1
2023-04-29T10:05:39.370Z,2.6
2023-04-29T10:06:48.490Z,4.1
2023-04-29T10:07:57.664Z,3
2023-04-29T10:09:05.835Z,2.8
2023-04-29T10:10:15.008Z,2.4
2023-04-29T10:11:24.180Z,4.19
2023-04-29T10:12:33.357Z,3.9
2023-04-29T10:13:42.530Z,2.09
2023-04-29T10:14:51.686Z,3.1
2023-04-29T10:16:00.875Z,2.8
2023-04-29T10:17:10.032Z,1.5
2023-04-29T10:18:19.217Z,2.09
2023-04-29T10:19:28.385Z,2.9
2023-04-29T10:20:37.566Z,3.9
2023-04-29T10:21:46.742Z,2.7
2023-04-29T10:22:55.909Z,2.2
2023-04-29T10:24:04.092Z,3
2023-04-29T10:25:13.287Z,2.09
2023-04-29T10:26:22.433Z,3.3
2023-04-29T10:27:31.610Z,2.09
2023-04-29T10:28:40.778Z,2.4
2023-04-29T10:29:49.943Z,3.1
2023-04-29T10:30:58.141Z,1.6
2023-04-29T10:32:06.339Z,2.4
2023-04-29T10:33:15.518Z,2.9
2023-04-29T10:34:23.702Z,1.8
2023-04-29T10:35:31.891Z,2.09
2023-04-29T10:36:41.056Z,1.8
2023-04-29T10:37:50.297Z,2.3
2023-04-29T10:40:08.582Z,2.2
2023-04-29T10:41:17.864Z,2.8
2023-04-29T10:42:26.927Z,3.3
2023-04-29T10:43:36.097Z,2.6
2023-04-29T10:44:45.283Z,2.9
2023-04-29T10:45:54.430Z,2.9
2023-04-29T10:47:03.609Z,2.7
2023-04-29T10:48:12.787Z,2.6
2023-04-29T10:50:31.125Z,2.5
2023-04-29T10:51:39.321Z,2.2
2023-04-29T10:52:47.508Z,2.5
2023-04-29T10:53:56.686Z,2
2023-04-29T10:55:05.852Z,2.4
2023-04-29T10:56:15.032Z,2
2023-04-29T10:57:24.203Z,2.2
2023-04-29T10:58:33.369Z,4.19
2023-04-29T10:59:42.531Z,2.6
2023-04-29T11:00:51.709Z,2.4
2023-04-29T11:02:00.881Z,1.7
2023-04-29T11:03:10.043Z,3.2
2023-04-29T11:04:18.272Z,2.4
2023-04-29T11:06:35.652Z,1.9
2023-04-29T11:07:44.865Z,2.4
2023-04-29T11:08:53.977Z,1.7
2023-04-29T11:11:12.295Z,3.1
2023-04-29T11:12:21.476Z,2.5
2023-04-29T11:13:30.634Z,2
2023-04-29T11:14:39.825Z,3.2
2023-04-29T11:15:48.991Z,3.8
2023-04-29T11:16:58.153Z,2.5
2023-04-29T11:18:07.329Z,2
2023-04-29T11:19:16.525Z,2
2023-04-29T11:20:24.695Z,3.1
2023-04-29T11:21:33.859Z,2
2023-04-29T11:22:43.181Z,2.9
2023-04-29T11:23:52.198Z,2.09
2023-04-29T11:25:01.372Z,2.2
2023-04-29T11:26:10.557Z,2.2
2023-04-29T11:27:19.718Z,2.4
2023-04-29T11:28:28.896Z,2.2
2023-04-29T11:29:38.066Z,2.4
2023-04-29T11:30:46.382Z,3.2
2023-04-29T11:31:54.456Z,2.3
2023-04-29T11:33:03.612Z,2.09
2023-04-29T11:34:12.809Z,3.3
2023-04-29T11:35:21.068Z,3.6
2023-04-29T11:36:29.189Z,1.7
2023-04-29T11:37:38.345Z,2.3
2023-04-29T11:38:47.528Z,1.9
2023-04-29T11:39:56.693Z,1.7
2023-04-29T11:41:05.869Z,2.09
2023-04-29T11:42:15.027Z,2
2023-04-29T11:43:24.224Z,2.6
2023-04-29T11:44:33.371Z,2.09
2023-04-29T11:45:42.544Z,1.7
2023-04-29T11:46:51.723Z,2
2023-04-29T11:48:00.901Z,2.2
2023-04-29T11:49:10.065Z,2.6
2023-04-29T11:50:19.242Z,2.5
2023-04-29T11:52:36.612Z,2.5
2023-04-29T11:53:45.770Z,2.6
2023-04-29T11:54:54.942Z,1.9
2023-04-29T11:56:04.200Z,1.9
2023-04-29T11:57:13.284Z,2
2023-04-29T11:58:22.460Z,2.6
2023-04-29T11:59:31.632Z,2.5
2023-04-29T12:00:39.861Z,2
2023-04-29T12:01:48.020Z,1.9
2023-04-29T12:02:57.202Z,1.8
2023-04-29T12:04:06.347Z,3.1
2023-04-29T12:05:15.593Z,1.8
2023-04-29T12:06:23.741Z,1.5
2023-04-29T12:07:31.908Z,1.7
2023-04-29T12:08:41.079Z,2.5
2023-04-29T12:09:50.248Z,1.7
2023-04-29T12:10:59.481Z,2.09
2023-04-29T12:12:08.593Z,3.1
2023-04-29T12:13:17.765Z,2.2
2023-04-29T12:14:26.952Z,1.7
2023-04-29T12:15:36.116Z,1.5
2023-04-29T12:16:45.280Z,3.5
2023-04-29T12:17:54.462Z,2
2023-04-29T12:19:03.681Z,2.5
2023-04-29T12:20:12.798Z,1.7
2023-04-29T12:21:21.988Z,2.2
2023-04-29T12:23:39.349Z,1.9
2023-04-29T12:24:48.619Z,1.9
2023-04-29T12:25:57.801Z,2.8
2023-04-29T12:27:06.854Z,1.7
2023-04-29T12:28:16.032Z,1.5
2023-04-29T12:29:25.188Z,2.2
2023-04-29T12:30:34.360Z,2.3
2023-04-29T12:31:42.575Z,4
2023-04-29T12:32:50.746Z,2
2023-04-29T12:33:59.933Z,1.7
2023-04-29T12:35:08.136Z,1.5
2023-04-29T12:36:16.319Z,1.9
2023-04-29T12:37:25.488Z,2.8
2023-04-29T12:38:34.653Z,1.7
2023-04-29T12:39:43.830Z,2.7
2023-04-29T12:40:52.993Z,2.2
2023-04-29T12:42:02.157Z,2.8
2023-04-29T12:43:11.339Z,1.6
2023-04-29T12:44:20.507Z,2.7
2023-04-29T12:45:29.689Z,2.3
2023-04-29T12:46:38.853Z,2.09
2023-04-29T12:47:48.020Z,2.4
2023-04-29T12:48:57.197Z,2.6
2023-04-29T12:50:06.408Z,1.9
2023-04-29T12:51:14.568Z,1.5
2023-04-29T12:52:23.735Z,2.09
2023-04-29T12:53:32.896Z,2.2
2023-04-29T12:54:42.081Z,1.6
2023-04-29T12:55:51.255Z,1.4
2023-04-29T12:57:00.401Z,1.4
2023-04-29T12:58:09.593Z,1.5
2023-04-29T12:59:17.842Z,1.8
2023-04-29T13:00:25.963Z,2.2
2023-04-29T13:01:35.134Z,1.8
2023-04-29T13:02:43.331Z,1.7
2023-04-29T13:03:51.505Z,2.09
2023-04-29T13:05:00.697Z,2.7
2023-04-29T13:06:09.863Z,2
2023-04-29T13:08:28.200Z,2.3
2023-04-29T13:09:37.391Z,3.6
2023-04-29T13:10:46.561Z,2.3
2023-04-29T13:11:55.732Z,2.6
2023-04-29T13:13:04.912Z,2.2
2023-04-29T13:14:14.073Z,1.8
2023-04-29T13:15:23.248Z,1.9
2023-04-29T13:16:32.417Z,1.9
2023-04-29T13:17:41.585Z,2
2023-04-29T13:18:49.757Z,2.7
2023-04-29T13:19:58.954Z,2.3
2023-04-29T13:21:08.129Z,2.8
2023-04-29T13:22:17.288Z,1.5
2023-04-29T13:23:26.467Z,2
2023-04-29T13:24:35.644Z,1.6
2023-04-29T13:25:44.837Z,2
2023-04-29T13:26:53.972Z,1.7
2023-04-29T13:28:03.160Z,2.3
2023-04-29T13:29:12.331Z,1.7
2023-04-29T13:31:30.707Z,2.4
2023-04-29T13:32:39.843Z,1.6
2023-04-29T13:33:48.034Z,1.5
2023-04-29T13:34:57.293Z,3.6
2023-04-29T13:36:06.371Z,2.4
2023-04-29T13:37:15.551Z,2
2023-04-29T13:38:24.731Z,1.9
2023-04-29T13:39:33.887Z,1.8
2023-04-29T13:40:43.064Z,2
2023-04-29T13:41:52.234Z,1.8
2023-04-29T13:43:01.418Z,2.4
2023-04-29T13:44:10.577Z,2
2023-04-29T13:45:19.763Z,2.5
2023-04-29T13:46:28.936Z,1.6
2023-04-29T13:47:38.094Z,0.9
2023-04-29T13:48:46.291Z,1.4
2023-04-29T13:49:55.460Z,1.5
2023-04-29T13:51:04.690Z,1.5
2023-04-29T13:52:13.809Z,1.8
2023-04-29T13:53:22.991Z,1.7
2023-04-29T13:54:31.157Z,1.6
2023-04-29T13:55:39.351Z,2.4
2023-04-29T13:56:47.546Z,1.8
2023-04-29T13:57:55.749Z,1.7
2023-04-29T13:59:04.895Z,1.8
2023-04-29T14:00:13.102Z,2.8
2023-04-29T14:01:22.268Z,3.8
2023-04-29T14:02:31.457Z,1.8
2023-04-29T14:03:40.621Z,1.6
2023-04-29T14:04:49.779Z,5
2023-04-29T14:05:58.980Z,1.5
2023-04-29T14:07:08.148Z,1.3
2023-04-29T14:08:17.298Z,1.2
2023-04-29T14:09:26.487Z,1.2
2023-04-29T14:10:35.690Z,1.3
2023-04-29T14:11:44.830Z,1.5
2023-04-29T14:12:54.002Z,1.7
2023-04-29T14:14:03.241Z,1.9
2023-04-29T14:15:11.355Z,1.5
2023-04-29T14:16:20.608Z,1.5
2023-04-29T14:17:29.713Z,2.09
2023-04-29T14:18:38.875Z,1.3
2023-04-29T14:19:48.036Z,1.2
2023-04-29T14:20:56.239Z,1.5
2023-04-29T14:22:04.424Z,1.2
2023-04-29T14:23:13.598Z,1.5
2023-04-29T14:24:22.782Z,1.5
2023-04-29T14:25:32.051Z,1.6
2023-04-29T14:26:41.119Z,1.3
2023-04-29T14:27:50.312Z,1.5
2023-04-29T14:28:59.502Z,1.3
2023-04-29T14:30:08.635Z,2.7
2023-04-29T14:31:17.840Z,2
2023-04-29T14:32:26.054Z,1.7
2023-04-29T14:33:34.225Z,1.2
2023-04-29T14:34:43.394Z,1.7
2023-04-29T14:35:52.568Z,1.4
2023-04-29T14:37:01.748Z,1.8
2023-04-29T14:38:10.916Z,1.5
2023-04-29T14:39:20.122Z,1.6
2023-04-29T14:40:29.257Z,2.3
2023-04-29T14:41:38.424Z,1.4
2023-04-29T14:42:47.639Z,1.4
2023-04-29T14:43:56.780Z,1.7
2023-04-29T14:45:05.997Z,1.4
2023-04-29T14:46:15.158Z,1.7
2023-04-29T14:48:33.458Z,1.7
2023-04-29T14:49:41.696Z,1.4
2023-04-29T14:50:50.822Z,1.8
2023-04-29T14:51:59.989Z,1.5
2023-04-29T14:53:09.158Z,1.5
2023-04-29T14:54:18.335Z,1.5
2023-04-29T14:55:27.518Z,1.7
2023-04-29T14:56:36.681Z,1.4
2023-04-29T14:57:45.852Z,1.4
2023-04-29T14:58:55.032Z,1.4
2023-04-29T15:00:04.194Z,1.8
2023-04-29T15:01:13.367Z,1.5
2023-04-29T15:02:22.532Z,1.5
2023-04-29T15:03:31.714Z,1.5
2023-04-29T15:04:39.978Z,1.8
2023-04-29T15:05:49.075Z,3
2023-04-29T15:06:58.279Z,1.7
2023-04-29T15:08:07.438Z,2.6
2023-04-29T15:09:16.669Z,1.9
2023-04-29T15:10:25.813Z,2.2
2023-04-29T15:11:34.940Z,2
2023-04-29T15:12:44.277Z,2.09
2023-04-29T15:15:02.629Z,2.09
2023-04-29T15:16:11.737Z,2
2023-04-29T15:17:20.799Z,1.9
2023-04-29T15:18:30.089Z,0.9
2023-04-29T15:19:38.147Z,0.8
2023-04-29T15:20:47.416Z,2.6
2023-04-29T15:21:56.680Z,1.5
2023-04-29T15:23:04.889Z,1.5
2023-04-29T15:24:13.022Z,1.9
2023-04-29T15:25:22.181Z,1.5
2023-04-29T15:26:31.420Z,3.5
2023-04-29T15:27:40.609Z,1.4
2023-04-29T15:28:49.779Z,1.5
2023-04-29T15:29:58.883Z,1.5
2023-04-29T15:31:07.918Z,2.6
2023-04-29T15:32:17.357Z,1.8
2023-04-29T15:33:26.375Z,1.7
2023-04-29T15:34:35.628Z,1.4
2023-04-29T15:35:44.599Z,1.9
2023-04-29T15:36:53.955Z,1.7
2023-04-29T15:38:03.127Z,1.6
2023-04-29T15:39:11.156Z,1.4
2023-04-29T15:40:20.548Z,1.7
2023-04-29T15:41:29.622Z,1.5
2023-04-29T15:42:38.806Z,1.6
2023-04-29T15:43:46.948Z,1.4
2023-04-29T15:44:56.197Z,1.5
2023-04-29T15:46:04.421Z,1.5
2023-04-29T15:47:13.507Z,1.3
2023-04-29T15:48:22.695Z,1.5
2023-04-29T15:49:31.834Z,1.6
2023-04-29T15:50:41.028Z,1.9
2023-04-29T15:51:50.100Z,1.4
2023-04-29T15:52:59.394Z,1.3
2023-04-29T15:54:08.570Z,1.5
2023-04-29T15:55:17.698Z,2.7
2023-04-29T15:56:26.988Z,1.5
2023-04-29T15:57:36.088Z,2.2
2023-04-29T15:58:45.312Z,2
2023-04-29T15:59:54.418Z,1.4
2023-04-29T16:01:02.595Z,1.2
2023-04-29T16:02:11.859Z,1.3
2023-04-29T16:03:20.934Z,1.6
2023-04-29T16:04:30.111Z,1.4
2023-04-29T16:05:39.356Z,1.5
2023-04-29T16:06:48.495Z,1.6
2023-04-29T16:07:56.625Z,1.2
2023-04-29T16:09:04.771Z,3.8
2023-04-29T16:10:13.876Z,1.2
2023-04-29T16:11:23.176Z,1.4
2023-04-29T16:12:32.228Z,1.5
2023-04-29T16:13:41.389Z,1.6
2023-04-29T16:14:49.614Z,1.9
2023-04-29T16:15:57.790Z,1.3
2023-04-29T16:17:06.933Z,1.1
2023-04-29T16:18:16.219Z,1.7
2023-04-29T16:19:25.350Z,1.2
2023-04-29T16:20:34.597Z,1.5
2023-04-29T16:21:43.664Z,1.4
2023-04-29T16:22:52.852Z,2.8
2023-04-29T16:25:11.184Z,2.2